| time (UTC) | temp C | wind direction | speed KPH | gust KPH | rain 1hr cm | rain 24hr cm | rain mn cm | humidity % | barometer mb |
| 20260505034534 | 11 | 27 | 0.0 | 0.0 | 0.00 | 0.00 | 0.00 | 49 | 999.9 |
| 20260505033035 | 11 | 27 | 0.0 | 0.0 | 0.00 | 0.00 | 0.00 | 49 | 999.8 |
| 20260505031532 | 11 | 27 | 0.0 | 0.0 | 0.00 | 0.00 | 0.00 | 47 | 999.7 |
| 20260505030032 | 12 | 27 | 0.0 | 0.0 | 0.00 | 0.00 | 0.00 | 47 | 999.4 |
| 20260505024531 | 12 | 27 | 0.0 | 0.0 | 0.00 | 0.00 | 0.00 | 44 | 999.2 |
| 20260505023031 | 13 | 27 | 0.0 | 0.0 | 0.00 | 0.00 | 0.00 | 44 | 999.2 |
| 20260505021531 | 13 | 27 | 0.0 | 0.0 | 0.00 | 0.00 | 0.00 | 43 | 999.1 |
| 20260505020030 | 13 | 27 | 0.0 | 0.0 | 0.00 | 0.00 | 0.00 | 44 | 999.0 |
| 20260505014529 | 14 | 27 | 0.0 | 0.0 | 0.00 | 0.00 | 0.00 | 43 | 998.9 |
| 20260505013029 | 14 | 27 | 0.0 | 0.0 | 0.00 | 0.00 | 0.00 | 44 | 999.1 |
| 20260505011546 | 14 | 27 | 0.0 | 0.0 | 0.00 | 0.00 | 0.00 | 44 | 999.2 |
| 20260505010028 | 14 | 27 | 0.0 | 0.0 | 0.00 | 0.00 | 0.00 | 45 | 999.3 |
| 20260505004528 | 15 | 27 | 0.0 | 0.0 | 0.00 | 0.00 | 0.00 | 48 | 999.4 |
| 20260505003027 | 14 | 27 | 0.0 | 0.0 | 0.00 | 0.00 | 0.00 | 47 | 999.6 |
| 20260505001527 | 14 | 27 | 0.0 | 0.0 | 0.00 | 0.00 | 0.00 | 50 | 999.8 |
| 20260505000036 | 14 | 27 | 0.0 | 0.0 | 0.00 | 0.00 | 0.00 | 53 | 999.8 |
| 20260504234529 | 13 | 27 | 0.0 | 1.6 | 0.00 | 0.00 | 0.00 | 57 | 1000.2 |
| 20260504233025 | 12 | 28 | 0.0 | 8.0 | 0.00 | 0.00 | 0.00 | 62 | 1000.8 |
| 20260504231522 | 12 | 29 | 0.0 | 12.9 | 0.00 | 0.00 | 0.00 | 58 | 1000.9 |
| 20260504230021 | 13 | 165 | 0.0 | 11.3 | 0.00 | 0.00 | 0.00 | 52 | 1000.8 |
| 20260504224519 | 15 | 184 | 0.0 | 1.6 | 0.00 | 0.00 | 0.00 | 45 | 1000.4 |
| 20260504223023 | 15 | 184 | 0.0 | 1.6 | 0.00 | 0.00 | 0.00 | 41 | 1000.0 |
| 20260504221516 | 17 | 184 | 0.0 | 0.0 | 0.00 | 0.00 | 0.00 | 34 | 999.4 |
| 20260504220016 | 18 | 184 | 0.0 | 0.0 | 0.00 | 0.00 | 0.00 | 33 | 999.2 |
| 20260504214515 | 18 | 184 | 0.0 | 0.0 | 0.00 | 0.00 | 0.00 | 31 | 999.0 |
| 20260504213015 | 18 | 184 | 0.0 | 1.6 | 0.00 | 0.00 | 0.00 | 30 | 999.1 |
| 20260504211514 | 18 | 184 | 0.0 | 6.4 | 0.00 | 0.00 | 0.00 | 28 | 999.2 |
| 20260504210018 | 20 | 185 | 0.0 | 1.6 | 0.00 | 0.00 | 0.00 | 25 | 999.3 |
| 20260504204512 | 20 | 185 | 0.0 | 1.6 | 0.00 | 0.00 | 0.00 | 27 | 999.4 |
| 20260504203011 | 20 | 185 | 0.0 | 4.8 | 0.00 | 0.00 | 0.00 | 27 | 999.5 |
| 20260504201510 | 19 | 186 | 0.0 | 1.6 | 0.00 | 0.00 | 0.00 | 28 | 999.6 |
| 20260504200012 | 21 | 187 | 0.0 | 3.2 | 0.00 | 0.00 | 0.00 | 26 | 999.7 |
| 20260504194508 | 20 | 190 | 0.0 | 1.6 | 0.00 | 0.00 | 0.00 | 26 | 999.8 |
| 20260504193006 | 20 | 192 | 0.0 | 3.2 | 0.00 | 0.00 | 0.00 | 28 | 1000.0 |
| 20260504191507 | 21 | 190 | 0.0 | 3.2 | 0.00 | 0.00 | 0.00 | 26 | 1000.0 |
| 20260504190002 | 20 | 192 | 0.0 | 9.7 | 0.00 | 0.00 | 0.00 | 27 | 1000.3 |
| 20260504184557 | 20 | 192 | 0.0 | 3.2 | 0.00 | 0.00 | 0.00 | 28 | 1000.4 |
| 20260504183054 | 19 | 198 | 0.0 | 3.2 | 0.00 | 0.00 | 0.00 | 26 | 1000.6 |
| 20260504181557 | 19 | 202 | 0.0 | 1.6 | 0.00 | 0.00 | 0.00 | 29 | 1000.7 |
| 20260504180047 | 18 | 204 | 0.0 | 1.6 | 0.00 | 0.00 | 0.00 | 30 | 1000.8 |
| 20260504174543 | 18 | 206 | 0.0 | 4.8 | 0.00 | 0.00 | 0.00 | 31 | 1001.1 |
| 20260504173039 | 18 | 207 | 0.0 | 11.3 | 0.00 | 0.00 | 0.00 | 29 | 1001.1 |
| 20260504171545 | 18 | 208 | 0.0 | 1.6 | 0.00 | 0.00 | 0.00 | 30 | 1001.2 |
| 20260504081514 | 11 | 213 | 0.0 | 0.0 | 0.00 | 0.00 | 0.00 | 29 | 1001.9 |
| 20260504044618 | 12 | 194 | 0.0 | 0.0 | 0.00 | 0.00 | 0.00 | 30 | 1003.2 |
| 20260504043055 | 12 | 194 | 0.0 | 0.0 | 0.00 | 0.00 | 0.00 | 28 | 1003.1 |
| 20260504041554 | 13 | 194 | 0.0 | 0.0 | 0.00 | 0.00 | 0.00 | 29 | 1003.1 |
| 20260504040110 | 13 | 194 | 0.0 | 0.0 | 0.00 | 0.00 | 0.00 | 27 | 1003.0 |